Time;durP1;ratioP1;P1;durP2;ratioP2;P2;SDS_P1;SDS_P2;PMS_P1;PMS_P2;Temp;Humidity;BMP_temperature;BMP_pressure;BME280_temperature;BME280_humidity;BME280_pressure;Samples;Min_cycle;Max_cycle;Signal;HPM_P1;HPM_P2
2022/09/26 00:02:08;;;;;;;;;1.00;0.00;;;;;17.43;47.30;100946.84;5055317;28;45415;-63
2022/09/26 00:04:33;;;;;;;;;1.00;1.00;;;;;17.47;47.27;100950.31;5056111;28;45467;-62
2022/09/26 00:06:59;;;;;;;;;0.00;0.00;;;;;17.43;47.47;100946.84;5055874;28;45357;-64
2022/09/26 00:09:26;;;;;;;;;0.67;0.67;;;;;17.42;47.63;100947.78;5053964;28;46009;-62
2022/09/26 00:11:52;;;;;;;;;1.00;1.00;;;;;17.38;47.63;100940.78;5079349;28;45470;-62
2022/09/26 00:14:25;;;;;;;;;1.33;1.00;;;;;17.38;47.53;100941.66;5061820;28;45541;-62
2022/09/26 00:16:50;;;;;;;;;1.00;1.00;;;;;17.36;47.77;100942.59;5056743;28;45402;-62
2022/09/26 00:19:16;;;;;;;;;1.00;1.00;;;;;17.35;48.01;100936.44;5067203;28;45552;-62
2022/09/26 00:21:42;;;;;;;;;1.00;1.00;;;;;17.36;48.00;100943.47;5080075;28;45448;-64
2022/09/26 00:24:08;;;;;;;;;1.00;1.00;;;;;17.35;47.94;100935.56;5076398;28;45421;-61
2022/09/26 00:26:35;;;;;;;;;1.00;1.00;;;;;17.30;48.00;100922.44;5075284;27;45958;-62
2022/09/26 00:29:06;;;;;;;;;1.00;1.00;;;;;17.31;48.04;100921.53;5075301;27;45476;-62
2022/09/26 00:31:34;;;;;;;;;2.00;1.00;;;;;17.29;47.99;100915.38;5057501;28;45900;-62
2022/09/26 00:34:00;;;;;;;;;1.00;0.67;;;;;17.25;48.15;100918.13;5077865;28;45491;-62
2022/09/26 00:36:27;;;;;;;;;1.00;1.00;;;;;17.22;48.25;100907.63;5079372;28;45511;-62
2022/09/26 00:38:52;;;;;;;;;0.33;0.33;;;;;17.14;48.50;100897.22;5079211;27;45501;-63
2022/09/26 00:41:18;;;;;;;;;1.00;1.00;;;;;17.21;48.50;100912.06;5078485;27;45517;-62
2022/09/26 00:43:52;;;;;;;;;1.00;1.00;;;;;17.11;48.39;100897.31;5054040;28;45498;-64
2022/09/26 00:46:28;;;;;;;;;1.00;1.00;;;;;17.16;48.47;100900.72;5052586;28;46470;-62
2022/09/26 00:49:19;;;;;;;;;1.00;1.00;;;;;17.15;48.34;100902.47;5067756;28;45498;-61
2022/09/26 00:51:50;;;;;;;;;2.00;1.00;;;;;17.09;48.34;100888.53;5075830;28;45406;-62
2022/09/26 00:54:18;;;;;;;;;1.00;1.00;;;;;17.13;48.66;100891.06;5075055;28;45540;-62
2022/09/26 00:56:49;;;;;;;;;1.67;0.00;;;;;17.03;48.81;100891.28;5076415;27;46114;-64
2022/09/26 00:59:21;;;;;;;;;1.00;1.00;;;;;17.01;48.86;100888.66;5076329;28;45887;-61
2022/09/26 01:01:50;;;;;;;;;1.00;1.00;;;;;17.07;48.51;100893.84;5075372;28;45378;-62
2022/09/26 01:04:16;;;;;;;;;1.00;1.00;;;;;17.08;48.71;100887.63;5075659;28;45524;-62
2022/09/26 01:06:44;;;;;;;;;1.00;1.00;;;;;17.05;48.65;100882.41;5074764;28;45312;-62
2022/09/26 01:09:11;;;;;;;;;1.00;1.00;;;;;16.94;48.63;100866.78;5074354;28;46069;-61
2022/09/26 01:11:39;;;;;;;;;1.00;1.00;;;;;17.06;48.76;100876.25;5077105;27;45267;-61
2022/09/26 01:14:07;;;;;;;;;1.00;1.00;;;;;17.04;48.53;100878.03;5075840;28;45696;-61
2022/09/26 01:16:33;;;;;;;;;1.00;1.00;;;;;17.06;48.51;100876.25;5074461;28;46572;-61
2022/09/26 01:19:04;;;;;;;;;1.33;1.00;;;;;17.07;48.58;100877.09;5078855;28;45457;-61
2022/09/26 01:21:42;;;;;;;;;1.00;1.00;;;;;17.08;48.48;100884.13;5057607;28;45429;-61
2022/09/26 01:24:34;;;;;;;;;1.00;1.00;;;;;17.02;48.38;100876.34;5061121;28;45476;-61
2022/09/26 01:27:02;;;;;;;;;1.00;1.00;;;;;17.09;48.47;100891.16;5074331;27;45950;-62
2022/09/26 01:30:05;;;;;;;;;1.00;1.00;;;;;17.06;48.60;100878.88;5075870;28;45565;-62
2022/09/26 01:33:02;;;;;;;;;2.00;1.00;;;;;17.04;48.74;100882.47;5066733;28;45620;-61
2022/09/26 01:35:59;;;;;;;;;1.00;1.00;;;;;17.03;48.73;100880.72;5075141;28;45530;-61
2022/09/26 01:38:34;;;;;;;;;1.33;1.33;;;;;17.00;49.02;100870.22;5076608;28;46061;-61
2022/09/26 01:41:35;;;;;;;;;1.00;1.00;;;;;16.97;48.82;100875.56;5057093;28;45410;-61
2022/09/26 01:44:14;;;;;;;;;1.00;1.00;;;;;16.96;48.98;100869.38;5074197;28;45456;-62
2022/09/26 01:46:50;;;;;;;;;1.00;1.00;;;;;16.88;49.09;100864.28;5074176;28;45626;-60
2022/09/26 01:49:33;;;;;;;;;3.33;1.00;;;;;16.92;48.81;100868.59;5058575;28;47609;-60
2022/09/26 01:52:24;;;;;;;;;0.00;0.00;;;;;16.90;48.76;100857.19;5074464;28;45521;-62
2022/09/26 01:55:08;;;;;;;;;0.67;0.67;;;;;16.90;48.78;100859.81;5073815;28;45354;-61
2022/09/26 01:57:43;;;;;;;;;1.00;1.00;;;;;16.90;48.66;100854.53;5076915;28;45465;-60
2022/09/26 02:00:11;;;;;;;;;2.67;1.00;;;;;16.90;48.47;100841.31;5077783;27;46330;-60
2022/09/26 02:02:42;;;;;;;;;1.00;1.00;;;;;16.86;48.01;100839.63;5073985;28;45520;-60
2022/09/26 02:05:13;;;;;;;;;0.33;0.33;;;;;16.84;48.41;100835.28;5073859;28;45468;-61
2022/09/26 02:07:44;;;;;;;;;0.67;0.67;;;;;16.86;48.25;100834.34;5074478;27;45437;-61
2022/09/26 02:10:37;;;;;;;;;1.00;1.00;;;;;16.84;48.20;100830.84;5072938;27;45670;-61
2022/09/26 02:13:28;;;;;;;;;1.33;1.33;;;;;16.75;48.32;100813.41;5065342;28;45441;-60
2022/09/26 02:16:01;;;;;;;;;0.33;0.33;;;;;16.81;48.22;100816.84;5074130;28;45488;-61
2022/09/26 02:18:32;;;;;;;;;0.00;0.00;;;;;16.80;47.89;100821.25;5066710;28;45484;-62
2022/09/26 02:21:02;;;;;;;;;0.33;0.33;;;;;16.82;48.03;100814.13;5072941;28;45577;-60
2022/09/26 02:23:28;;;;;;;;;0.33;0.33;;;;;16.72;48.07;100809.94;5057807;28;45357;-62
2022/09/26 02:25:53;;;;;;;;;0.00;0.00;;;;;16.72;48.06;100802.00;5063488;28;45513;-61
2022/09/26 02:28:20;;;;;;;;;1.00;1.00;;;;;16.75;48.09;100808.09;5061483;28;45465;-60
2022/09/26 02:30:48;;;;;;;;;1.00;1.00;;;;;16.80;48.05;100809.78;5073472;28;45394;-60
2022/09/26 02:33:15;;;;;;;;;2.00;0.00;;;;;16.77;47.98;100799.25;5073631;28;45596;-61
2022/09/26 02:35:54;;;;;;;;;0.00;0.00;;;;;16.67;48.12;100785.38;5068164;28;45576;-61
2022/09/26 02:38:21;;;;;;;;;1.00;1.00;;;;;16.77;48.19;100793.97;5074115;27;45734;-61
2022/09/26 02:40:59;;;;;;;;;1.00;0.33;;;;;16.74;48.45;100786.97;5077396;28;45418;-63
2022/09/26 02:43:42;;;;;;;;;0.00;0.00;;;;;16.74;48.08;100789.63;5077917;28;45251;-62
2022/09/26 02:46:42;;;;;;;;;3.00;1.00;;;;;16.75;48.21;100780.75;5073922;28;45658;-61
2022/09/26 02:49:08;;;;;;;;;2.67;0.00;;;;;16.75;48.17;100770.19;5073807;28;45464;-61
2022/09/26 02:51:53;;;;;;;;;0.33;0.33;;;;;16.73;48.18;100764.09;5075777;28;46106;-62
2022/09/26 02:54:29;;;;;;;;;0.33;0.33;;;;;16.69;48.18;100757.13;5077847;28;45461;-61
2022/09/26 02:57:16;;;;;;;;;1.00;1.00;;;;;16.63;48.06;100750.19;5073776;27;45402;-60
2022/09/26 02:59:51;;;;;;;;;0.00;0.00;;;;;16.66;48.37;100738.69;5075174;28;45749;-61
2022/09/26 03:02:24;;;;;;;;;0.00;0.00;;;;;16.60;48.11;100737.03;5062779;28;46203;-62
2022/09/26 03:04:55;;;;;;;;;2.00;1.00;;;;;16.56;48.40;100722.13;5076646;27;45172;-62
2022/09/26 03:07:35;;;;;;;;;0.00;0.00;;;;;16.57;48.33;100720.38;5073826;28;45386;-61
2022/09/26 03:10:04;;;;;;;;;1.00;1.00;;;;;16.56;48.47;100719.50;5073190;28;45591;-62
2022/09/26 03:12:32;;;;;;;;;0.00;0.00;;;;;16.52;48.64;100707.28;5075623;28;45882;-62
2022/09/26 03:15:01;;;;;;;;;1.00;1.00;;;;;16.52;48.68;100708.13;5077519;28;45792;-62
2022/09/26 03:17:28;;;;;;;;;1.00;1.00;;;;;16.56;48.40;100710.69;5055289;28;45511;-62
2022/09/26 03:20:04;;;;;;;;;1.00;0.00;;;;;16.53;48.69;100703.72;5071553;28;45403;-61
2022/09/26 03:22:30;;;;;;;;;1.00;0.00;;;;;16.52;48.60;100686.97;5058833;28;45849;-62
2022/09/26 03:24:58;;;;;;;;;0.33;0.33;;;;;16.36;48.79;100656.50;5055967;28;45430;-63
2022/09/26 03:27:24;;;;;;;;;1.00;1.00;;;;;16.54;48.53;100687.81;5056373;28;45755;-65
2022/09/26 03:29:50;;;;;;;;;0.33;0.33;;;;;16.52;48.44;100700.19;5057544;28;45313;-60
2022/09/26 03:32:16;;;;;;;;;1.00;1.00;;;;;16.43;48.74;100681.91;5076925;27;46313;-62
2022/09/26 03:34:42;;;;;;;;;0.00;0.00;;;;;16.47;48.55;100690.66;5076237;27;45753;-63
2022/09/26 03:37:07;;;;;;;;;0.00;0.00;;;;;16.38;48.69;100680.28;5076504;28;45395;-63
2022/09/26 03:39:33;;;;;;;;;0.00;0.00;;;;;16.43;48.66;100678.41;5076385;28;46333;-62
2022/09/26 03:42:00;;;;;;;;;1.00;1.00;;;;;16.41;48.93;100682.84;5075927;28;45456;-65
2022/09/26 03:44:26;;;;;;;;;1.00;0.00;;;;;16.38;48.75;100675.84;5076262;27;45794;-63
2022/09/26 03:46:51;;;;;;;;;0.00;0.00;;;;;16.31;49.32;100653.97;5038039;28;45458;-63
2022/09/26 03:49:17;;;;;;;;;2.33;1.00;;;;;16.30;49.00;100654.91;5056145;28;45618;-65
2022/09/26 03:51:43;;;;;;;;;1.00;1.00;;;;;16.11;49.89;100630.66;5055914;28;46187;-66
2022/09/26 03:54:11;;;;;;;;;1.00;1.00;;;;;16.07;50.00;100644.84;5055648;28;45676;-62
2022/09/26 03:56:37;;;;;;;;;1.00;1.00;;;;;16.07;50.08;100647.47;5059432;28;45388;-63
2022/09/26 03:59:06;;;;;;;;;1.00;0.00;;;;;16.11;49.93;100645.63;5055340;28;45447;-62
2022/09/26 04:01:32;;;;;;;;;1.00;1.00;;;;;16.06;50.02;100645.75;5063368;28;46151;-63
2022/09/26 04:03:58;;;;;;;;;1.67;0.00;;;;;15.90;50.15;100623.22;5064971;28;45495;-62
2022/09/26 04:06:23;;;;;;;;;1.00;1.00;;;;;16.06;50.70;100647.50;5066602;27;45763;-63
2022/09/26 04:08:51;;;;;;;;;1.00;1.00;;;;;16.01;50.39;100642.31;5068650;28;45454;-63
2022/09/26 04:11:23;;;;;;;;;1.00;1.00;;;;;16.02;50.61;100640.56;5059752;28;45454;-62
2022/09/26 04:13:50;;;;;;;;;0.33;0.33;;;;;16.00;50.30;100619.47;5059468;28;45319;-62
2022/09/26 04:16:16;;;;;;;;;1.00;1.00;;;;;15.89;50.86;100624.09;5068585;28;45385;-63
2022/09/26 04:18:41;;;;;;;;;0.67;0.00;;;;;15.87;50.82;100604.78;5067823;28;45518;-63
2022/09/26 04:21:10;;;;;;;;;0.00;0.00;;;;;15.79;51.04;100602.31;5062234;28;45617;-63
2022/09/26 04:23:39;;;;;;;;;2.00;1.00;;;;;15.80;51.19;100597.88;5069547;27;45404;-61
2022/09/26 04:26:11;;;;;;;;;2.33;0.67;;;;;15.74;51.33;100593.63;5067368;28;45921;-63
2022/09/26 04:28:38;;;;;;;;;1.00;1.00;;;;;15.82;50.81;100590.81;5074230;28;45502;-61
2022/09/26 04:31:06;;;;;;;;;0.33;0.33;;;;;15.81;50.80;100570.59;5055720;28;46409;-62
2022/09/26 04:33:32;;;;;;;;;0.00;0.00;;;;;15.86;50.89;100566.94;5074576;28;45461;-63
2022/09/26 04:36:01;;;;;;;;;3.67;1.00;;;;;15.82;50.55;100577.59;5074603;28;45743;-65
2022/09/26 04:38:33;;;;;;;;;1.00;1.00;;;;;15.74;50.79;100567.22;5069726;28;45513;-63
2022/09/26 04:41:18;;;;;;;;;1.33;1.00;;;;;15.74;50.59;100563.72;5062670;28;45547;-62
2022/09/26 04:43:44;;;;;;;;;2.00;1.00;;;;;15.79;50.66;100561.84;5067328;28;45547;-62
2022/09/26 04:46:16;;;;;;;;;0.00;0.00;;;;;15.82;50.05;100562.63;5071626;28;45351;-61
2022/09/26 04:48:45;;;;;;;;;1.00;1.00;;;;;15.76;50.16;100543.44;5067325;28;45881;-64
2022/09/26 04:51:13;;;;;;;;;1.00;1.00;;;;;15.86;50.51;100547.59;5055255;28;46203;-65
2022/09/26 04:53:40;;;;;;;;;1.00;1.00;;;;;15.85;50.11;100538.81;5076336;27;45346;-63
2022/09/26 04:56:08;;;;;;;;;1.33;0.00;;;;;15.83;49.98;100543.25;5075801;28;45596;-62
2022/09/26 04:58:34;;;;;;;;;1.00;1.00;;;;;15.86;49.93;100521.19;5068293;28;45477;-61
2022/09/26 05:01:06;;;;;;;;;1.00;0.33;;;;;15.85;50.17;100529.97;5036186;28;46662;-63
2022/09/26 05:03:31;;;;;;;;;0.33;0.00;;;;;15.87;50.01;100537.00;5063959;28;45485;-64
2022/09/26 05:05:58;;;;;;;;;0.67;0.67;;;;;15.86;49.81;100519.41;5064400;28;45395;-63
2022/09/26 05:08:24;;;;;;;;;0.00;0.00;;;;;15.89;49.57;100532.53;5068785;27;45575;-62
2022/09/26 05:10:55;;;;;;;;;0.67;0.67;;;;;15.85;49.69;100524.69;5060252;28;46470;-63
2022/09/26 05:13:24;;;;;;;;;0.67;0.67;;;;;15.80;49.63;100514.28;5072994;28;45482;-62
2022/09/26 05:15:53;;;;;;;;;2.00;0.67;;;;;15.60;50.12;100490.91;5062715;28;45629;-63
2022/09/26 05:18:19;;;;;;;;;1.67;1.00;;;;;15.68;50.70;100499.53;5056750;28;45516;-63
2022/09/26 05:20:47;;;;;;;;;2.33;1.00;;;;;15.59;50.26;100475.09;5071489;27;46626;-63
2022/09/26 05:26:18;;;;;;;;;2.00;1.00;;;;;15.63;50.43;100482.91;5052929;28;45760;-64
2022/09/26 05:26:18;;;;;;;;;2.33;1.00;;;;;15.65;50.95;100475.84;5065552;27;45572;-63
2022/09/26 05:28:47;;;;;;;;;1.67;1.67;;;;;15.65;51.00;100477.63;5070905;28;45469;-62
2022/09/26 05:31:13;;;;;;;;;2.00;0.00;;;;;15.60;50.90;100461.00;5048066;28;46148;-63
2022/09/26 05:33:40;;;;;;;;;1.67;1.67;;;;;15.59;51.45;100472.47;5063310;27;45454;-64
2022/09/26 05:36:07;;;;;;;;;1.00;1.00;;;;;15.50;51.58;100465.63;5057241;28;45268;-64
2022/09/26 05:38:33;;;;;;;;;2.00;0.33;;;;;15.48;51.71;100480.63;5069654;28;45557;-63
2022/09/26 05:40:59;;;;;;;;;1.00;1.00;;;;;15.40;52.08;100467.63;5061159;28;46219;-63
2022/09/26 05:43:27;;;;;;;;;1.00;1.00;;;;;15.34;51.85;100470.38;5057859;28;45547;-62
2022/09/26 05:46:02;;;;;;;;;3.00;2.00;;;;;15.29;52.29;100472.25;5055591;28;45472;-62
2022/09/26 05:48:29;;;;;;;;;1.00;1.00;;;;;15.30;52.00;100467.84;5053759;28;45475;-65
2022/09/26 05:50:55;;;;;;;;;2.67;2.67;;;;;15.29;51.82;100460.84;5063589;28;46402;-61
2022/09/26 05:53:21;;;;;;;;;2.00;2.00;;;;;15.27;52.38;100461.72;5054256;28;45529;-63
2022/09/26 05:55:50;;;;;;;;;1.67;1.67;;;;;15.17;52.92;100459.34;5053684;28;45545;-63
2022/09/26 05:58:17;;;;;;;;;3.00;1.00;;;;;15.13;52.81;100462.94;5054859;28;45297;-64
2022/09/26 06:00:46;;;;;;;;;1.00;1.00;;;;;15.19;52.75;100457.53;5039586;28;46944;-64
2022/09/26 06:03:14;;;;;;;;;2.67;1.67;;;;;15.26;52.20;100460.00;5050855;28;45349;-63
2022/09/26 06:05:40;;;;;;;;;1.00;1.00;;;;;15.17;52.49;100452.28;5062748;27;45260;-62
2022/09/26 06:08:07;;;;;;;;;2.00;1.00;;;;;15.23;52.33;100457.44;5055549;28;45433;-62
2022/09/26 06:10:34;;;;;;;;;1.00;1.00;;;;;15.24;52.56;100460.94;5036693;28;47710;-63
2022/09/26 06:13:04;;;;;;;;;1.00;1.00;;;;;15.30;52.61;100455.50;5034977;28;45823;-63
2022/09/26 06:15:30;;;;;;;;;1.00;1.00;;;;;15.35;52.70;100458.03;5055452;28;45281;-62
2022/09/26 06:18:03;;;;;;;;;2.00;2.00;;;;;15.17;52.67;100439.09;5057827;28;45718;-62
2022/09/26 06:20:33;;;;;;;;;1.33;1.00;;;;;15.35;52.60;100453.66;5057675;28;46010;-62
2022/09/26 06:23:00;;;;;;;;;2.67;1.00;;;;;15.33;52.56;100449.28;5039978;28;45522;-64
2022/09/26 06:25:26;;;;;;;;;1.00;1.00;;;;;15.38;52.72;100450.94;5058348;28;45380;-62
2022/09/26 06:27:57;;;;;;;;;3.00;1.00;;;;;15.31;52.28;100454.63;5060492;28;45360;-62
2022/09/26 06:30:23;;;;;;;;;1.67;1.67;;;;;15.26;52.40;100430.97;5077825;28;45501;-62
2022/09/26 06:32:52;;;;;;;;;2.00;2.00;;;;;15.34;52.47;100429.94;5074512;27;45629;-64
2022/09/26 06:35:20;;;;;;;;;3.33;2.00;;;;;15.48;52.51;100444.56;5074009;28;45431;-63
2022/09/26 06:37:45;;;;;;;;;2.00;2.00;;;;;15.35;51.84;100414.09;5073581;28;45453;-63
2022/09/26 06:40:11;;;;;;;;;2.00;1.67;;;;;15.45;52.17;100435.84;5056765;28;46653;-62
2022/09/26 06:42:38;;;;;;;;;1.67;1.00;;;;;15.48;52.14;100434.00;5073549;28;45485;-63
2022/09/26 06:45:09;;;;;;;;;1.33;1.00;;;;;15.46;51.88;100425.22;5052945;28;45492;-62
2022/09/26 06:47:35;;;;;;;;;1.00;1.00;;;;;15.51;52.28;100430.41;5056398;28;45299;-62
2022/09/26 06:50:01;;;;;;;;;1.33;1.33;;;;;15.52;51.94;100428.63;5048975;27;45579;-63
2022/09/26 06:52:33;;;;;;;;;2.00;2.00;;;;;15.53;52.10;100435.66;5053792;28;45588;-63
2022/09/26 06:55:02;;;;;;;;;0.67;0.67;;;;;15.55;52.01;100421.53;5057083;28;45536;-63
2022/09/26 06:57:36;;;;;;;;;2.00;2.00;;;;;15.56;52.23;100412.69;5060772;28;45355;-63
2022/09/26 07:00:03;;;;;;;;;1.33;1.33;;;;;15.55;51.85;100395.13;5056620;28;46047;-63
2022/09/26 07:02:28;;;;;;;;;2.00;1.00;;;;;15.61;51.75;100402.03;5055550;28;45493;-63
2022/09/26 07:04:55;;;;;;;;;0.33;0.00;;;;;15.61;51.79;100400.28;5056927;28;45395;-62
2022/09/26 07:07:21;;;;;;;;;1.00;1.00;;;;;15.69;51.86;100406.22;5060302;28;45407;-64
2022/09/26 07:09:47;;;;;;;;;1.00;1.00;;;;;15.59;51.91;100380.97;5064707;27;46224;-64
2022/09/26 07:12:13;;;;;;;;;1.67;1.67;;;;;15.73;51.32;100391.22;5060147;28;45450;-64
2022/09/26 07:14:39;;;;;;;;;1.00;1.00;;;;;15.65;51.26;100377.28;5037763;28;45585;-65
2022/09/26 07:17:04;;;;;;;;;2.33;1.00;;;;;15.77;51.29;100387.56;5056181;28;45926;-65
2022/09/26 07:19:30;;;;;;;;;1.00;1.00;;;;;15.84;51.29;100375.94;5055067;28;45467;-64
2022/09/26 07:21:56;;;;;;;;;2.00;1.00;;;;;15.92;51.00;100366.97;5044631;28;45795;-63
2022/09/26 07:24:21;;;;;;;;;1.33;1.33;;;;;15.93;51.10;100352.88;5054778;28;45732;-63
2022/09/26 07:26:47;;;;;;;;;1.00;1.00;;;;;15.91;50.62;100347.63;5069599;28;45596;-64
2022/09/26 07:29:12;;;;;;;;;1.33;1.33;;;;;15.98;50.97;100353.63;5072628;28;46153;-64
2022/09/26 07:31:38;;;;;;;;;3.33;2.33;;;;;15.97;50.39;100351.84;5072275;27;45460;-64
2022/09/26 07:34:04;;;;;;;;;1.00;1.00;;;;;15.92;50.62;100335.28;5077261;28;45524;-65
2022/09/26 07:36:30;;;;;;;;;2.33;2.00;;;;;15.97;50.42;100341.28;5055125;28;45582;-63
2022/09/26 07:38:56;;;;;;;;;1.00;1.00;;;;;15.95;50.65;100320.22;5053114;28;47807;-63
2022/09/26 07:41:22;;;;;;;;;2.00;2.00;;;;;15.93;50.84;100318.53;5072215;28;45887;-63
2022/09/26 07:43:47;;;;;;;;;2.00;2.00;;;;;15.94;50.58;100312.34;5040004;28;45390;-63
2022/09/26 07:51:41;;;;;;;;;1.00;1.00;;;;;15.90;50.75;100295.72;5055719;28;45469;-64
2022/09/26 07:54:07;;;;;;;;;3.67;1.33;;;;;15.88;50.61;100314.22;5052749;28;45472;-63
2022/09/26 07:56:33;;;;;;;;;2.67;2.00;;;;;15.81;50.92;100294.19;5065960;28;45590;-64
2022/09/26 07:59:02;;;;;;;;;1.00;1.00;;;;;15.85;50.70;100300.22;5077450;28;46390;-63
2022/09/26 08:01:28;;;;;;;;;1.33;1.33;;;;;15.87;50.51;100298.41;5055077;28;45443;-63
2022/09/26 08:03:56;;;;;;;;;1.00;1.00;;;;;15.90;50.43;100288.66;5072683;28;45399;-63
2022/09/26 08:06:22;;;;;;;;;2.33;1.00;;;;;15.80;50.73;100289.81;5073892;27;46017;-63
2022/09/26 08:08:52;;;;;;;;;1.00;1.00;;;;;15.80;50.84;100291.56;5061826;28;45525;-63
2022/09/26 08:11:19;;;;;;;;;1.00;1.00;;;;;15.96;50.61;100302.59;5068541;28;45504;-62
2022/09/26 08:13:45;;;;;;;;;1.33;1.33;;;;;15.83;50.48;100276.53;5059679;28;45484;-63
2022/09/26 08:16:22;;;;;;;;;1.00;1.00;;;;;15.98;50.70;100299.00;5063075;28;45384;-62
2022/09/26 08:18:52;;;;;;;;;2.00;1.67;;;;;15.99;50.43;100295.47;5039680;28;46834;-63
2022/09/26 08:21:19;;;;;;;;;1.67;0.33;;;;;16.04;50.39;100283.00;5045138;28;45307;-62
2022/09/26 08:23:45;;;;;;;;;3.33;2.00;;;;;16.02;50.51;100281.31;5055118;28;45361;-63
2022/09/26 08:26:11;;;;;;;;;2.33;1.33;;;;;16.02;50.24;100279.53;5068709;28;45417;-63
2022/09/26 08:28:37;;;;;;;;;3.67;1.00;;;;;16.14;50.26;100277.47;5070963;28;45344;-62
2022/09/26 08:31:04;;;;;;;;;1.00;1.00;;;;;16.24;49.97;100277.13;5057669;28;45315;-62
2022/09/26 08:33:34;;;;;;;;;1.00;1.00;;;;;16.36;49.75;100269.78;5058384;28;45297;-63
2022/09/26 08:36:09;;;;;;;;;2.00;2.00;;;;;16.50;49.41;100270.22;5059369;28;45355;-62
2022/09/26 08:38:36;;;;;;;;;3.00;2.00;;;;;16.56;49.45;100259.47;5046986;27;46105;-60
2022/09/26 08:41:31;;;;;;;;;1.00;1.00;;;;;16.72;48.69;100257.22;5054971;28;45888;-62
2022/09/26 08:44:20;;;;;;;;;3.00;2.00;;;;;16.92;48.53;100254.00;5066652;28;45402;-61
2022/09/26 08:47:01;;;;;;;;;3.00;2.00;;;;;16.97;47.98;100248.56;5040836;28;45467;-62
2022/09/26 08:49:37;;;;;;;;;1.00;1.00;;;;;17.07;47.80;100236.75;5056820;28;46296;-63
2022/09/26 08:52:13;;;;;;;;;2.00;2.00;;;;;17.17;47.84;100235.53;5064338;28;45762;-62
2022/09/26 08:54:41;;;;;;;;;1.33;1.00;;;;;17.27;47.41;100242.22;5035478;28;46035;-62
2022/09/26 08:57:43;;;;;;;;;2.00;2.00;;;;;17.32;47.40;100240.31;5067023;28;45844;-63
2022/09/26 09:00:20;;;;;;;;;2.00;1.00;;;;;17.45;46.92;100239.91;5070353;28;45574;-63
2022/09/26 09:03:13;;;;;;;;;1.00;1.00;;;;;17.38;46.96;100226.00;5068450;28;45563;-64
2022/09/26 09:06:03;;;;;;;;;1.67;1.33;;;;;17.39;47.32;100217.13;5071344;28;45469;-62
2022/09/26 09:08:39;;;;;;;;;1.67;1.00;;;;;17.28;47.19;100214.88;5049197;27;47956;-64
2022/09/26 09:11:15;;;;;;;;;1.00;1.00;;;;;17.25;47.29;100209.69;5066376;27;45756;-63
2022/09/26 09:13:56;;;;;;;;;2.00;2.00;;;;;17.44;46.73;100203.75;5069228;28;45497;-62
2022/09/26 09:16:27;;;;;;;;;2.00;2.00;;;;;17.65;46.37;100186.25;5068787;28;45607;-63
2022/09/26 09:19:07;;;;;;;;;1.00;1.00;;;;;17.66;45.90;100182.69;5060584;28;45509;-62
2022/09/26 09:22:08;;;;;;;;;1.67;1.67;;;;;17.93;45.81;100194.06;5060672;28;46101;-65
2022/09/26 09:24:59;;;;;;;;;3.00;2.00;;;;;18.05;45.26;100174.22;5063836;28;46606;-63
2022/09/26 09:27:53;;;;;;;;;1.67;1.67;;;;;18.07;45.22;100164.41;5047787;28;45639;-64
2022/09/26 09:30:22;;;;;;;;;4.00;2.00;;;;;18.11;45.13;100153.66;5074009;28;45482;-64
2022/09/26 09:32:59;;;;;;;;;2.00;2.00;;;;;18.26;44.59;100157.47;5052686;28;46031;-64
2022/09/26 09:35:30;;;;;;;;;1.00;1.00;;;;;18.49;44.13;100155.72;5044025;28;45394;-63
2022/09/26 09:37:57;;;;;;;;;1.00;1.00;;;;;18.57;43.76;100135.06;5068659;28;46075;-62
2022/09/26 09:40:36;;;;;;;;;3.00;2.00;;;;;18.56;43.72;100138.66;5051114;28;45415;-63
2022/09/26 09:43:13;;;;;;;;;3.00;3.00;;;;;18.30;44.20;100129.09;5052331;28;45462;-62
2022/09/26 09:45:50;;;;;;;;;1.67;1.00;;;;;18.09;43.95;100134.28;5065907;28;45452;-62
2022/09/26 09:48:16;;;;;;;;;3.00;1.33;;;;;17.77;44.54;100131.06;5068791;28;45478;-63
2022/09/26 09:50:41;;;;;;;;;1.00;1.00;;;;;17.68;44.88;100130.53;5064402;28;45607;-62
2022/09/26 09:53:26;;;;;;;;;1.00;1.00;;;;;17.60;44.92;100120.19;5070685;28;45679;-62
2022/09/26 09:56:07;;;;;;;;;1.00;1.00;;;;;17.69;44.87;100113.72;5054758;28;45983;-62
2022/09/26 09:58:51;;;;;;;;;1.67;1.00;;;;;17.74;46.61;100123.19;5063496;28;45345;-63
2022/09/26 10:01:32;;;;;;;;;1.67;1.00;;;;;17.77;44.87;100116.91;5066821;28;45449;-62
2022/09/26 10:04:10;;;;;;;;;0.67;0.67;;;;;17.84;44.75;100096.41;5074703;28;46096;-62
2022/09/26 10:06:36;;;;;;;;;2.67;1.00;;;;;17.77;44.89;100090.44;5073030;28;46541;-61
2022/09/26 10:09:20;;;;;;;;;3.00;1.00;;;;;17.78;44.68;100100.13;5048852;28;46537;-62
2022/09/26 10:11:46;;;;;;;;;2.00;1.00;;;;;17.76;44.76;100086.94;5068559;27;45292;-61
2022/09/26 10:14:17;;;;;;;;;1.00;1.00;;;;;17.68;45.17;100077.56;5065290;28;45549;-63
2022/09/26 10:17:08;;;;;;;;;3.00;1.00;;;;;17.57;45.20;100088.53;5068778;28;45481;-62
2022/09/26 10:19:37;;;;;;;;;1.00;1.00;;;;;17.50;45.21;100072.03;5069633;28;45489;-63
2022/09/26 10:22:24;;;;;;;;;3.00;1.33;;;;;17.42;47.33;100078.53;5070467;28;45452;-63
2022/09/26 10:25:09;;;;;;;;;1.00;1.00;;;;;17.54;47.63;100070.13;5064734;28;45480;-63
2022/09/26 10:27:39;;;;;;;;;83.00;69.00;;;;;17.35;46.17;100038.19;5047239;28;45867;-60
2022/09/26 10:30:17;;;;;;;;;52.50;40.50;;;;;17.41;47.04;100060.91;5071340;28;45497;-62
2022/09/26 10:32:49;;;;;;;;;16.67;15.00;;;;;17.34;46.70;100026.72;5070508;28;45433;-62
2022/09/26 10:35:17;;;;;;;;;4.33;4.33;;;;;17.37;46.84;100031.91;5072849;28;46704;-63
2022/09/26 10:38:05;;;;;;;;;1.67;1.67;;;;;17.38;46.96;100030.97;5056971;28;45501;-64
2022/09/26 10:40:44;;;;;;;;;3.00;1.67;;;;;17.42;46.23;100007.06;5072252;28;45341;-62
2022/09/26 10:43:49;;;;;;;;;3.00;1.67;;;;;17.33;47.38;100001.19;5071489;28;45558;-61
2022/09/26 10:46:17;;;;;;;;;1.00;1.00;;;;;17.29;47.53;100010.16;5064138;28;46043;-64
2022/09/26 10:48:54;;;;;;;;;1.33;1.00;;;;;17.25;48.02;99999.72;5069398;28;45461;-62
2022/09/26 10:51:23;;;;;;;;;1.00;1.00;;;;;17.04;48.84;99999.63;5075039;28;45378;-61
2022/09/26 10:53:53;;;;;;;;;2.00;2.00;;;;;17.04;49.34;100012.00;5072003;28;46041;-64
2022/09/26 10:56:29;;;;;;;;;3.67;3.00;;;;;17.14;49.18;100010.72;5066372;28;45790;-63
2022/09/26 10:58:58;;;;;;;;;4.00;2.00;;;;;17.15;48.74;99999.22;5063468;28;45442;-63
2022/09/26 11:01:29;;;;;;;;;2.00;1.00;;;;;17.07;48.92;99983.63;5064402;28;46182;-64
2022/09/26 11:04:10;;;;;;;;;1.00;1.00;;;;;17.04;49.19;99982.88;5071061;28;45572;-62
2022/09/26 11:06:42;;;;;;;;;2.00;1.00;;;;;17.02;49.03;99982.94;5072398;28;46535;-65
2022/09/26 11:09:10;;;;;;;;;2.00;1.67;;;;;16.89;49.57;99990.44;5075508;28;45534;-63
2022/09/26 11:11:38;;;;;;;;;4.00;2.33;;;;;16.78;50.38;99994.38;5068531;27;45617;-64
2022/09/26 11:14:09;;;;;;;;;2.33;2.00;;;;;16.81;51.06;99967.84;5073155;28;45556;-64
2022/09/26 11:16:51;;;;;;;;;3.00;3.00;;;;;16.80;51.52;99974.03;5066158;28;45930;-64
2022/09/26 11:19:30;;;;;;;;;2.00;1.00;;;;;16.67;51.86;99974.44;5070571;28;45700;-65
2022/09/26 11:22:24;;;;;;;;;1.33;1.33;;;;;16.44;53.27;99971.72;5070555;28;45489;-64
2022/09/26 11:25:16;;;;;;;;;2.00;2.00;;;;;16.32;52.96;99959.78;5071631;28;45514;-63
2022/09/26 11:27:49;;;;;;;;;2.33;2.33;;;;;16.41;53.52;99962.13;5071096;27;47368;-63
2022/09/26 11:30:19;;;;;;;;;1.00;1.00;;;;;16.25;54.30;99963.56;5054056;28;45401;-65
2022/09/26 11:32:54;;;;;;;;;1.33;1.33;;;;;16.07;55.82;99958.00;5063476;28;45344;-63
2022/09/26 11:35:33;;;;;;;;;4.00;2.00;;;;;15.86;56.42;99948.97;5069272;28;45404;-63
2022/09/26 11:38:14;;;;;;;;;2.67;1.00;;;;;15.89;56.51;99955.94;5057679;28;45308;-62
2022/09/26 11:41:35;;;;;;;;;2.00;1.00;;;;;15.77;56.89;99945.78;5058286;28;45809;-62
2022/09/26 11:44:14;;;;;;;;;2.00;2.00;;;;;15.66;58.83;99944.31;5075076;27;45801;-62
2022/09/26 11:47:12;;;;;;;;;1.00;1.00;;;;;15.39;59.83;99930.19;5075979;28;45674;-62
2022/09/26 11:50:10;;;;;;;;;1.33;1.33;;;;;15.24;60.92;99918.34;5075258;28;45799;-63
2022/09/26 11:52:52;;;;;;;;;1.67;1.67;;;;;15.27;62.25;99918.22;5075543;27;45489;-63
2022/09/26 11:55:48;;;;;;;;;2.67;2.00;;;;;15.04;63.22;99921.59;5051183;27;45560;-63
2022/09/26 11:58:42;;;;;;;;;2.00;2.00;;;;;15.01;63.96;99910.25;5053678;28;45698;-62